New Winchester, Ohio
Current Conditions -  °F | °C
As of 6:53 PM on Wednesday 28 Jan 2015 (Local Time) from KMNN Reporting Station
Clear Clear  
Wind Chill: 13°   Ceiling: Unl
Heat Index: 23°   Visibility: 10mi
Dew Point: 12°   Wind: 9mph
Humidity: 63%   Direction: 170°S
Pressure: 30.25"   Gusts: NA
Location:  40.815°N, 82.9723°W
Report Text: KMNN 282353Z AUTO 17008KT 10SM CLR M05/M11 A3025 RMK AO2 SLP267 T10501111 11039 21067 55010 TSNO
Loading
Personal Weather Stations






























Interactive Weather Map New forecast layout! Learn more

10-Day Weather Forecast

Advertisements
Track Severe Weather on mobile